createdAt,value
2023-04-15T04:30:49.180Z,559.97
2023-04-15T04:33:15.821Z,554.45
2023-04-15T04:35:42.463Z,556.60
2023-04-15T04:38:09.047Z,555.33
2023-04-15T04:40:35.677Z,563.92
2023-04-15T04:43:02.660Z,562.42
2023-04-15T04:45:29.278Z,561.83
2023-04-15T04:47:56.029Z,563.92
2023-04-15T04:50:22.799Z,560.42
2023-04-15T04:52:49.479Z,565.20
2023-04-15T04:55:16.655Z,569.03
2023-04-15T04:57:43.283Z,566.65
2023-04-15T05:00:10.398Z,566.88
2023-04-15T05:02:37.251Z,574.95
2023-04-15T05:05:04.171Z,564.50
2023-04-15T05:07:31.112Z,573.60
2023-04-15T05:09:57.718Z,566.07
2023-04-15T05:12:24.350Z,571.13
2023-04-15T05:14:51.223Z,571.65
2023-04-15T05:17:17.949Z,573.30
2023-04-15T05:19:44.631Z,577.05
2023-04-15T05:22:11.267Z,574.78
2023-04-15T05:24:37.904Z,581.95
2023-04-15T05:27:04.691Z,581.20
2023-04-15T05:29:31.292Z,573.03
2023-04-15T05:31:58.017Z,582.88
2023-04-15T05:34:24.646Z,585.80
2023-04-15T05:36:51.230Z,573.55
2023-04-15T05:39:17.942Z,582.07
2023-04-15T05:41:44.897Z,582.78
2023-04-15T05:44:11.645Z,578.37
2023-04-15T05:46:38.580Z,584.25
2023-04-15T05:49:05.265Z,584.13
2023-04-15T05:51:31.925Z,591.17
2023-04-15T05:53:58.618Z,593.63
2023-04-15T05:56:26.966Z,593.57
2023-04-15T05:58:54.292Z,589.50
2023-04-15T06:01:21.220Z,593.97
2023-04-15T06:03:48.762Z,608.28
2023-04-15T06:06:15.550Z,632.08
2023-04-15T06:08:42.484Z,635.90
2023-04-15T06:11:09.111Z,638.25
2023-04-15T06:13:35.761Z,645.25
2023-04-15T06:16:02.403Z,644.55
2023-04-15T06:18:30.824Z,646.35
2023-04-15T06:20:57.611Z,643.63
2023-04-15T06:23:25.241Z,648.90
2023-04-15T06:25:53.704Z,656.13
2023-04-15T06:28:20.437Z,655.03
2023-04-15T06:30:47.137Z,658.47
2023-04-15T06:33:13.778Z,665.08
2023-04-15T06:35:40.525Z,662.05
2023-04-15T06:38:07.120Z,664.20
2023-04-15T06:40:33.872Z,665.88
2023-04-15T06:43:00.463Z,665.28
2023-04-15T06:45:27.459Z,674.58
2023-04-15T06:47:54.228Z,681.38
2023-04-15T06:50:20.862Z,680.35
2023-04-15T06:52:47.647Z,688.22
2023-04-15T06:55:14.907Z,692.30
2023-04-15T06:57:41.596Z,693.63
2023-04-15T07:00:11.047Z,690.05
2023-04-15T07:02:37.885Z,704.55
2023-04-15T07:05:06.850Z,706.17
2023-04-15T07:07:33.548Z,718.00
2023-04-15T07:10:02.061Z,717.05
2023-04-15T07:12:28.794Z,720.38
2023-04-15T07:14:55.792Z,717.45
2023-04-15T07:17:22.462Z,723.60
2023-04-15T07:19:49.220Z,715.50
2023-04-15T07:22:15.995Z,724.58
2023-04-15T07:24:42.648Z,729.90
2023-04-15T07:27:09.271Z,728.25
2023-04-15T07:29:36.139Z,756.70
2023-04-15T07:32:03.096Z,750.72
2023-04-15T07:34:30.812Z,744.35
2023-04-15T07:36:58.733Z,754.47
2023-04-15T07:39:25.803Z,755.60
2023-04-15T07:41:52.468Z,758.47
2023-04-15T07:44:19.162Z,747.58
2023-04-15T07:46:46.064Z,747.67
2023-04-15T07:49:13.347Z,759.05
2023-04-15T07:51:40.143Z,755.10
2023-04-15T07:54:07.399Z,759.15
2023-04-15T07:56:34.016Z,758.22
2023-04-15T07:59:02.470Z,768.33
2023-04-15T08:01:29.349Z,763.03
2023-04-15T08:03:56.114Z,770.15
2023-04-15T08:06:22.911Z,774.85
2023-04-15T08:08:49.678Z,774.75
2023-04-15T08:11:16.860Z,787.72
2023-04-15T08:13:43.498Z,781.33
2023-04-15T08:16:24.885Z,790.78
2023-04-15T08:18:54.001Z,793.45
2023-04-15T08:21:20.865Z,802.15
2023-04-15T08:23:50.146Z,798.30
2023-04-15T08:26:17.620Z,795.35
2023-04-15T08:28:45.419Z,802.10
2023-04-15T08:31:16.227Z,810.42
2023-04-15T08:33:43.173Z,814.20
2023-04-15T08:36:10.133Z,815.22
2023-04-15T08:38:37.240Z,829.83
2023-04-15T08:41:13.563Z,828.27
2023-04-15T08:43:48.903Z,840.58
2023-04-15T08:46:16.496Z,867.58
2023-04-15T08:48:44.213Z,878.10
2023-04-15T08:51:11.206Z,890.22
2023-04-15T08:53:37.939Z,911.35
2023-04-15T08:56:07.076Z,944.28
2023-04-15T08:58:34.338Z,963.55
2023-04-15T09:01:01.607Z,973.00
2023-04-15T09:03:29.011Z,975.63
2023-04-15T09:05:57.295Z,979.23
2023-04-15T09:08:23.958Z,977.50
2023-04-15T09:10:51.326Z,978.13
2023-04-15T09:13:18.709Z,981.08
2023-04-15T09:15:45.919Z,981.22
2023-04-15T09:18:13.724Z,976.10
2023-04-15T09:20:44.577Z,973.30
2023-04-15T09:23:15.603Z,968.27
2023-04-15T09:25:42.633Z,967.75
2023-04-15T09:28:09.779Z,969.15
2023-04-15T09:30:36.818Z,966.53
2023-04-15T09:33:08.090Z,965.30
2023-04-15T09:35:36.617Z,965.93
2023-04-15T09:38:08.174Z,963.92
2023-04-15T09:40:40.982Z,961.95
2023-04-15T09:43:09.698Z,961.65
2023-04-15T09:45:37.131Z,964.10
2023-04-15T09:48:21.126Z,962.30
2023-04-15T09:50:50.996Z,943.80
2023-04-15T09:53:23.127Z,927.35
2023-04-15T09:55:52.481Z,915.88
2023-04-15T09:58:27.371Z,908.63
2023-04-15T10:00:56.445Z,910.58
2023-04-15T10:03:28.820Z,900.97
2023-04-15T10:05:57.406Z,896.67
2023-04-15T10:08:28.990Z,892.42
2023-04-15T10:10:56.214Z,890.28
2023-04-15T10:13:28.730Z,883.53
2023-04-15T10:15:59.347Z,869.75
2023-04-15T10:18:28.486Z,870.00
2023-04-15T10:20:55.517Z,865.00
2023-04-15T10:23:24.389Z,872.80
2023-04-15T10:25:53.285Z,859.72
2023-04-15T10:28:21.242Z,866.38
2023-04-15T10:30:49.596Z,859.65
2023-04-15T10:33:21.122Z,864.90
2023-04-15T10:35:51.730Z,867.38
2023-04-15T10:38:45.797Z,865.97
2023-04-15T10:41:34.325Z,864.00
2023-04-15T10:44:03.766Z,875.00
2023-04-15T10:46:38.204Z,879.60
2023-04-15T10:49:24.573Z,884.88
2023-04-15T10:51:59.207Z,891.55
2023-04-15T10:54:25.764Z,899.40
2023-04-15T10:57:06.419Z,901.20
2023-04-15T10:59:37.274Z,911.50
2023-04-15T11:02:05.931Z,911.70
2023-04-15T11:04:51.353Z,918.35
2023-04-15T11:07:43.499Z,933.17
2023-04-15T11:10:36.195Z,954.08
2023-04-15T11:13:17.065Z,970.13
2023-04-15T11:15:45.438Z,982.28
2023-04-15T11:18:22.366Z,995.20
2023-04-15T11:20:51.608Z,999.90
2023-04-15T11:23:20.144Z,999.90
2023-04-15T11:25:47.485Z,999.90
2023-04-15T11:28:14.393Z,999.90
2023-04-15T11:30:42.599Z,999.90
2023-04-15T11:33:12.124Z,999.90
2023-04-15T11:35:40.934Z,999.90
2023-04-15T11:38:12.907Z,999.90
2023-04-15T11:40:40.317Z,997.70
2023-04-15T11:43:18.482Z,990.85
2023-04-15T11:45:59.659Z,989.13
2023-04-15T11:48:26.386Z,986.60
2023-04-15T11:50:57.954Z,982.63
2023-04-15T11:53:35.713Z,980.90
2023-04-15T11:56:02.723Z,976.38
2023-04-15T11:58:29.708Z,953.83
2023-04-15T12:01:01.177Z,940.17
2023-04-15T12:03:30.161Z,928.75
2023-04-15T12:06:24.427Z,918.22
2023-04-15T12:08:55.121Z,917.35
2023-04-15T12:11:32.544Z,915.53
2023-04-15T12:14:04.575Z,910.95
2023-04-15T12:16:31.870Z,912.43
2023-04-15T12:19:00.182Z,915.45
2023-04-15T12:21:33.809Z,904.47
2023-04-15T12:24:04.312Z,899.60
2023-04-15T12:26:37.549Z,904.42
2023-04-15T12:29:08.474Z,908.70
2023-04-15T12:31:39.058Z,908.08
2023-04-15T12:34:09.041Z,919.35
2023-04-15T12:36:38.423Z,930.63
2023-04-15T12:39:06.265Z,939.67
2023-04-15T12:41:33.607Z,930.50
2023-04-15T12:44:00.761Z,932.88
2023-04-15T12:46:27.646Z,926.60
2023-04-15T12:48:54.409Z,924.90
2023-04-15T12:51:21.803Z,926.30
2023-04-15T12:53:49.624Z,915.00
2023-04-15T12:56:19.855Z,908.87
2023-04-15T12:58:46.489Z,905.25
2023-04-15T13:01:13.126Z,897.03
2023-04-15T13:03:39.897Z,899.53
2023-04-15T13:06:06.849Z,899.35
2023-04-15T13:08:33.605Z,901.50
2023-04-15T13:11:00.949Z,890.63
2023-04-15T13:13:27.913Z,894.90
2023-04-15T13:15:54.613Z,890.22
2023-04-15T13:18:21.482Z,893.17
2023-04-15T13:20:48.121Z,890.03
2023-04-15T13:23:15.387Z,897.00
2023-04-15T13:25:42.356Z,889.83
2023-04-15T13:28:11.239Z,883.17
2023-04-15T13:30:38.945Z,887.45
2023-04-15T13:33:06.539Z,884.85
2023-04-15T13:35:33.770Z,873.63
2023-04-15T13:38:00.396Z,878.63
2023-04-15T13:40:27.435Z,878.80
2023-04-15T13:42:54.185Z,857.35
2023-04-15T13:45:21.106Z,872.70
2023-04-15T13:47:47.813Z,868.63
2023-04-15T13:50:14.593Z,847.20
2023-04-15T13:52:41.198Z,847.63
2023-04-15T13:55:19.318Z,867.08
2023-04-15T13:57:48.015Z,867.80
2023-04-15T14:00:15.443Z,860.58
2023-04-15T14:02:42.586Z,867.77
2023-04-15T14:05:10.353Z,875.45
2023-04-15T14:07:37.260Z,875.33
2023-04-15T14:10:04.428Z,883.22
2023-04-15T14:12:31.182Z,885.38
2023-04-15T14:14:57.817Z,887.50
2023-04-15T14:17:24.697Z,889.05
2023-04-15T14:19:51.314Z,883.30
2023-04-15T14:22:18.901Z,891.63
2023-04-15T14:24:45.759Z,896.10
2023-04-15T14:27:12.535Z,895.40
2023-04-15T14:29:39.216Z,897.63
2023-04-15T14:32:12.362Z,891.85
2023-04-15T14:34:40.335Z,893.72
2023-04-15T14:37:07.053Z,895.35
2023-04-15T14:39:33.760Z,895.58
2023-04-15T14:42:01.254Z,885.65
2023-04-15T14:44:27.923Z,879.53
2023-04-15T14:46:54.876Z,865.63
2023-04-15T14:49:21.585Z,871.97
2023-04-15T14:51:48.197Z,875.35
2023-04-15T14:54:15.371Z,876.95
2023-04-15T14:56:42.011Z,861.60
2023-04-15T14:59:08.672Z,851.83
2023-04-15T15:01:35.568Z,852.53
2023-04-15T15:04:02.352Z,847.53
2023-04-15T15:06:29.086Z,848.08
2023-04-15T15:08:55.944Z,843.80
2023-04-15T15:11:22.617Z,849.70
2023-04-15T15:13:49.304Z,848.42
2023-04-15T15:16:16.247Z,842.30
2023-04-15T15:18:42.952Z,850.15
2023-04-15T15:21:10.450Z,844.42
2023-04-15T15:23:37.047Z,843.93
2023-04-15T15:26:03.858Z,837.30
2023-04-15T15:28:30.523Z,843.60
2023-04-15T15:30:57.173Z,840.38
2023-04-15T15:33:23.894Z,842.33
2023-04-15T15:35:51.096Z,839.60
2023-04-15T15:38:17.877Z,836.60
2023-04-15T15:40:44.520Z,836.70
2023-04-15T15:43:11.224Z,837.80
2023-04-15T15:45:37.918Z,833.95
2023-04-15T15:48:05.099Z,832.03
2023-04-15T15:50:31.880Z,832.53
2023-04-15T15:52:59.006Z,823.47
2023-04-15T15:55:27.101Z,828.33
2023-04-15T15:57:54.329Z,821.40
2023-04-15T16:00:21.802Z,822.97
2023-04-15T16:03:05.857Z,820.40
2023-04-15T16:05:34.672Z,826.80
2023-04-15T16:08:01.716Z,817.08
2023-04-15T16:10:28.902Z,816.72
2023-04-15T16:12:55.735Z,816.17
2023-04-15T16:15:23.908Z,808.47
2023-04-15T16:17:50.985Z,813.67
2023-04-15T16:20:17.826Z,805.97
2023-04-15T16:22:44.659Z,799.42
2023-04-15T16:25:11.318Z,805.33
2023-04-15T16:27:54.222Z,797.08
2023-04-15T16:30:25.004Z,785.65
2023-04-15T16:32:51.937Z,782.55
2023-04-15T16:35:18.723Z,776.83
2023-04-15T16:37:45.540Z,774.78
2023-04-15T16:40:12.628Z,775.90
2023-04-15T16:42:39.834Z,784.05
2023-04-15T16:45:07.043Z,780.13
2023-04-15T16:47:33.671Z,776.00
2023-04-15T16:50:00.352Z,777.10
2023-04-15T16:52:28.811Z,774.63
2023-04-15T16:54:55.861Z,764.08
2023-04-15T16:57:22.483Z,771.03
2023-04-15T16:59:51.667Z,772.67
2023-04-15T17:02:18.505Z,765.03
2023-04-15T17:04:45.243Z,764.28
2023-04-15T17:07:11.853Z,764.38
2023-04-15T17:09:40.320Z,764.95
2023-04-15T17:12:07.386Z,765.58
2023-04-15T17:14:34.990Z,755.47
2023-04-15T17:17:01.888Z,759.42
2023-04-15T17:19:28.734Z,756.97
2023-04-15T17:21:55.409Z,753.92
2023-04-15T17:24:22.144Z,758.80
2023-04-15T17:26:48.774Z,759.08
2023-04-15T17:29:15.396Z,760.28
2023-04-15T17:31:42.350Z,768.05
2023-04-15T17:34:10.056Z,769.28
2023-04-15T17:36:38.006Z,765.58
2023-04-15T17:39:04.881Z,779.10
2023-04-15T17:41:31.736Z,773.53
2023-04-15T17:43:58.416Z,778.08
2023-04-15T17:46:25.173Z,787.30
2023-04-15T17:48:51.831Z,779.78
2023-04-15T17:51:18.464Z,770.43
2023-04-15T17:53:45.101Z,784.63
2023-04-15T17:56:11.849Z,775.13
2023-04-15T17:58:39.258Z,772.88
2023-04-15T18:01:06.328Z,784.28
2023-04-15T18:03:33.110Z,779.50
2023-04-15T18:06:01.190Z,778.85
2023-04-15T18:08:28.764Z,775.13
2023-04-15T18:10:55.437Z,786.45
2023-04-15T18:13:22.175Z,783.78
2023-04-15T18:15:50.727Z,787.87
2023-04-15T18:18:17.511Z,779.22
2023-04-15T18:20:44.246Z,782.83
2023-04-15T18:23:11.224Z,791.63
2023-04-15T18:25:38.311Z,783.23
2023-04-15T18:28:05.519Z,774.40
2023-04-15T18:30:32.298Z,773.90
2023-04-15T18:32:58.994Z,770.35
2023-04-15T18:35:25.697Z,766.72
2023-04-15T18:37:52.997Z,736.00
2023-04-15T18:40:19.696Z,742.92
2023-04-15T18:42:46.340Z,745.08
2023-04-15T18:45:12.979Z,732.27
2023-04-15T18:47:39.761Z,721.50
2023-04-15T18:50:08.104Z,731.90
2023-04-15T18:52:34.823Z,735.40
2023-04-15T18:55:03.198Z,732.15
2023-04-15T18:57:35.021Z,736.67
2023-04-15T19:00:02.790Z,745.10
2023-04-15T19:02:29.570Z,759.93
2023-04-15T19:04:56.291Z,758.20
2023-04-15T19:07:23.211Z,763.67
2023-04-15T19:09:49.878Z,771.05
2023-04-15T19:12:16.622Z,768.22
2023-04-15T19:14:43.273Z,768.28
2023-04-15T19:17:09.867Z,779.75
2023-04-15T19:19:36.720Z,783.58
2023-04-15T19:22:03.366Z,785.53
2023-04-15T19:24:32.991Z,785.10
2023-04-15T19:27:00.028Z,790.78
2023-04-15T19:29:28.537Z,783.72
2023-04-15T19:31:55.921Z,787.33
2023-04-15T19:34:22.556Z,791.38
2023-04-15T19:36:49.211Z,780.33
2023-04-15T19:39:16.120Z,789.15
2023-04-15T19:41:44.255Z,787.30
2023-04-15T19:44:14.008Z,775.10
2023-04-15T19:46:41.168Z,785.08
2023-04-15T19:49:07.892Z,783.17
2023-04-15T19:51:34.728Z,782.63
2023-04-15T19:54:01.416Z,780.30
2023-04-15T19:56:28.051Z,780.13
2023-04-15T19:58:55.210Z,780.35
2023-04-15T20:01:22.626Z,783.58
2023-04-15T20:03:49.410Z,784.38
2023-04-15T20:06:16.141Z,773.20
2023-04-15T20:08:42.926Z,774.55
2023-04-15T20:11:10.245Z,784.90
2023-04-15T20:13:36.989Z,784.05
2023-04-15T20:16:05.786Z,778.73
2023-04-15T20:18:32.596Z,782.33
2023-04-15T20:20:59.434Z,792.42
2023-04-15T20:23:26.053Z,783.60
2023-04-15T20:25:52.680Z,781.20
2023-04-15T20:28:19.505Z,777.15
2023-04-15T20:30:47.191Z,771.75
2023-04-15T20:33:14.390Z,767.08
2023-04-15T20:35:41.120Z,769.63
2023-04-15T20:38:07.831Z,769.38
2023-04-15T20:40:34.429Z,770.42
2023-04-15T20:43:01.175Z,763.38
2023-04-15T20:45:27.780Z,772.10
2023-04-15T20:47:56.043Z,777.23
2023-04-15T20:50:22.762Z,769.50
2023-04-15T20:52:49.462Z,779.08
2023-04-15T20:55:16.190Z,790.05
2023-04-15T20:57:42.947Z,782.22
2023-04-15T21:00:10.903Z,790.45
2023-04-15T21:02:38.292Z,791.70
2023-04-15T21:05:05.796Z,773.93
2023-04-15T21:07:32.476Z,775.10
2023-04-15T21:09:59.143Z,762.13
2023-04-15T21:12:25.781Z,758.80
2023-04-15T21:14:52.531Z,767.75
2023-04-15T21:17:19.478Z,766.50
2023-04-15T21:19:46.127Z,762.65
2023-04-15T21:22:12.749Z,769.90
2023-04-15T21:24:39.369Z,763.33
2023-04-15T21:27:06.362Z,765.20
2023-04-15T21:29:33.039Z,765.67
2023-04-15T21:31:59.681Z,756.78
2023-04-15T21:34:26.515Z,751.97
2023-04-15T21:36:53.171Z,749.80
2023-04-15T21:39:19.818Z,751.42
2023-04-15T21:41:46.592Z,744.47
2023-04-15T21:44:14.827Z,750.10
2023-04-15T21:46:42.288Z,758.92
2023-04-15T21:49:13.104Z,740.80
2023-04-15T21:51:39.746Z,742.65
2023-04-15T21:54:06.390Z,756.63
2023-04-15T21:56:33.178Z,743.78
2023-04-15T21:58:59.816Z,727.50
2023-04-15T22:01:27.238Z,731.90
2023-04-15T22:03:54.229Z,730.20
2023-04-15T22:06:21.372Z,727.20
2023-04-15T22:08:56.902Z,723.25
2023-04-15T22:11:28.352Z,734.50
2023-04-15T22:13:59.124Z,720.47
2023-04-15T22:16:26.340Z,727.17
2023-04-15T22:18:53.534Z,730.53
2023-04-15T22:21:20.214Z,727.13
2023-04-15T22:23:48.017Z,728.22
2023-04-15T22:26:14.779Z,728.70
2023-04-15T22:28:41.853Z,739.97
2023-04-15T22:31:08.645Z,739.15
2023-04-15T22:33:35.452Z,719.97
2023-04-15T22:36:02.137Z,740.72
2023-04-15T22:38:28.796Z,728.83
2023-04-15T22:40:55.462Z,724.88
2023-04-15T22:43:22.626Z,729.97
2023-04-15T22:45:50.556Z,722.20
2023-04-15T22:48:18.226Z,731.40
2023-04-15T22:50:45.005Z,722.13
2023-04-15T22:53:11.659Z,740.58
2023-04-15T22:55:38.334Z,733.05
2023-04-15T22:58:05.026Z,733.20
2023-04-15T23:00:31.632Z,731.08
2023-04-15T23:02:58.387Z,721.83
2023-04-15T23:05:25.150Z,733.50
2023-04-15T23:07:51.749Z,732.08
2023-04-15T23:10:18.424Z,730.20
2023-04-15T23:12:45.059Z,735.10
2023-04-15T23:15:11.911Z,726.17
2023-04-15T23:17:38.651Z,732.95
2023-04-15T23:20:06.413Z,720.58
2023-04-15T23:22:37.384Z,725.33
2023-04-15T23:25:05.400Z,722.03
2023-04-15T23:27:32.104Z,733.80
2023-04-15T23:29:58.762Z,725.43
